Espaço - Ciências - Fenômenos Naturais
Meteógrafos Informações Meteorológicas em tempo real

Aeroporto de Bauru

Histórico do Tempo
Temperatura atual: 19 graus 66 F    Umidade relativa: 100 %
Velocidade do vento: 03 nós 5 Km/h    Direção: 200 graus SSW
Ajuste do altímetro ..: 1015 HPA
Visibilidade: Regular    Tempo presente: Chovendo fraco

Observação
Poucas nuvens a 900 Pés., Nuvens esparsas a 2500 Pés., Céu encoberto a7000 Pés.

Data Hora BRTTempo°CUmidadePressãoVentoVisib.
24/05 - 07:56   Chovendo fraco 19° 100% 1015 Sul-sudoeste/5 km/h 4000
24/05 - 06:56   Céu Encoberto 19° 100% 1014 Sul/10 km/h OK
24/05 - 05:56   Céu Encoberto 20° 93% 1014 Sul-sudoeste/10 km/h OK
24/05 - 04:56   Céu Limpo 22° 78% 1013 Oeste/7 km/h OK
24/05 - 03:56   Céu Limpo 22° 78% 1013 Norte/7 km/h OK
24/05 - 02:56   Céu Limpo 22° 78% 1013 Norte-nordeste/5 km/h OK
24/05 - 01:56   Céu Limpo 23° 69% 1014 Norte-nordeste/10 km/h OK
24/05 - 00:56   Céu Limpo 22° 73% 1015 Leste/7 km/h OK
23/05 - 23:56   Céu Limpo 22° 78% 1015 Sul/7 km/h OK
23/05 - 22:56   Céu Limpo 25° 57% 1015 Nordeste/7 km/h OK
23/05 - 21:56   Céu Limpo 25° 61% 1015 Este-nordeste/3 km/h OK
23/05 - 20:56   Céu Limpo 25° 61% 1015 Norte/0 km/h OK
23/05 - 19:56   Céu Limpo 26° 57% 1015 Sudeste/3 km/h OK
23/05 - 18:56   Céu Limpo 27° 47% 1015 Norte-noroeste/3 km/h OK
23/05 - 17:56   Céu Limpo 28° 48% 1014 Oeste-noroeste/10 km/h OK
23/05 - 16:56   Céu Limpo 28° 48% 1014 Norte-noroeste/10 km/h OK
23/05 - 15:56   Céu Limpo 29° 45% 1015 Noroeste/14 km/h OK
23/05 - 14:56   Céu Limpo 29° 45% 1015 Noroeste/14 km/h OK
23/05 - 13:56   Céu Limpo 28° 45% 1016 Oeste-noroeste/7 km/h OK
23/05 - 12:56   Céu Limpo 27° 47% 1017 Norte-noroeste/10 km/h OK
23/05 - 11:56   Céu Limpo 25° 57% 1018 Norte-noroeste/7 km/h OK
23/05 - 10:56   Céu Limpo 24° 61% 1018 Norte-nordeste/9 km/h OK
23/05 - 09:56   Céu Limpo 22° 64% 1018 Norte/7 km/h OK
23/05 - 08:56   Céu Limpo 20° 68% 1017 Norte/7 km/h OK


Apolo11.com - Todos os direitos reservados - 2000 - 2019
Política de Privacidade   |     Termo de Uso e Licenciamento   |  -   Entre em Contato

"Política é a guerra sem sangue enquanto a guerra é a política com sangue" - Mao Tsé-Tung